createdAt,value
2017-11-28T00:01:38.723Z,58.80
2017-11-28T00:04:06.170Z,59.32
2017-11-28T00:06:33.688Z,59.11
2017-11-28T00:09:01.139Z,59.42
2017-11-28T00:11:28.633Z,59.63
2017-11-28T00:13:56.156Z,59.96
2017-11-28T00:16:23.629Z,60.05
2017-11-28T00:18:54.937Z,59.91
2017-11-28T00:21:23.086Z,59.68
2017-11-28T00:23:50.572Z,59.45
2017-11-28T00:26:18.829Z,59.77
2017-11-28T00:28:46.357Z,60.35
2017-11-28T00:31:13.851Z,60.42
2017-11-28T00:33:41.307Z,61.19
2017-11-28T00:36:08.788Z,61.99
2017-11-28T00:38:36.347Z,62.69
2017-11-28T00:41:03.835Z,63.22
2017-11-28T00:43:31.351Z,63.73
2017-11-28T00:45:58.903Z,63.50
2017-11-28T00:48:28.677Z,62.73
2017-11-28T00:50:56.182Z,62.39
2017-11-28T00:53:23.686Z,61.70
2017-11-28T00:55:51.169Z,61.66
2017-11-28T00:58:19.376Z,61.54
2017-11-28T01:00:47.241Z,61.04
2017-11-28T01:03:17.205Z,60.59
2017-11-28T01:05:44.709Z,60.73
2017-11-28T01:08:12.173Z,60.16
2017-11-28T01:10:40.618Z,59.99
2017-11-28T01:13:08.120Z,59.46
2017-11-28T01:15:35.643Z,59.80
2017-11-28T01:18:03.297Z,59.30
2017-11-28T01:20:30.779Z,58.75
2017-11-28T01:22:58.270Z,58.86
2017-11-28T01:25:25.773Z,59.07
2017-11-28T01:27:53.388Z,58.71
2017-11-28T01:30:20.933Z,58.58
2017-11-28T01:32:48.461Z,58.38
2017-11-28T01:35:15.957Z,57.77
2017-11-28T01:37:43.433Z,58.08
2017-11-28T01:40:10.897Z,57.39
2017-11-28T01:42:38.463Z,57.11
2017-11-28T01:45:05.958Z,56.98
2017-11-28T01:47:33.445Z,56.73
2017-11-28T01:50:00.983Z,56.83
2017-11-28T01:52:28.508Z,56.33
2017-11-28T01:54:55.978Z,56.51
2017-11-28T01:57:25.115Z,56.41
2017-11-28T01:59:52.588Z,56.60
2017-11-28T02:02:20.084Z,56.86
2017-11-28T02:04:47.593Z,56.77
2017-11-28T02:07:15.081Z,56.94
2017-11-28T02:09:42.563Z,57.25
2017-11-28T02:12:10.067Z,57.37
2017-11-28T02:14:37.572Z,57.69
2017-11-28T02:17:05.082Z,57.39
2017-11-28T02:19:32.610Z,57.76
2017-11-28T02:22:00.096Z,57.93
2017-11-28T02:24:28.018Z,58.08
2017-11-28T02:26:55.779Z,58.41
2017-11-28T02:29:23.294Z,58.81
2017-11-28T02:31:50.808Z,59.24
2017-11-28T02:34:18.312Z,59.13
2017-11-28T02:36:45.837Z,58.84
2017-11-28T02:39:13.362Z,58.96
2017-11-28T02:41:40.912Z,59.35
2017-11-28T02:44:18.309Z,58.78
2017-11-28T02:46:45.779Z,58.69
2017-11-28T02:49:25.004Z,59.08
2017-11-28T02:51:52.538Z,58.99
2017-11-28T02:54:20.100Z,58.87
2017-11-28T02:56:47.619Z,59.21
2017-11-28T02:59:15.884Z,58.56
2017-11-28T03:01:50.112Z,58.23
2017-11-28T03:04:17.857Z,58.19
2017-11-28T03:06:45.385Z,57.69
2017-11-28T03:09:16.539Z,56.94
2017-11-28T03:11:44.065Z,56.64
2017-11-28T03:14:32.581Z,56.31
2017-11-28T03:17:00.099Z,56.54
2017-11-28T03:22:33.927Z,57.20
2017-11-28T03:25:21.743Z,57.13
2017-11-28T03:27:50.164Z,56.94
2017-11-28T03:33:13.827Z,57.47
2017-11-28T03:35:41.358Z,57.72
2017-11-28T03:38:08.946Z,58.10
2017-11-28T03:40:37.221Z,58.67
2017-11-28T03:43:04.729Z,59.21
2017-11-28T03:45:34.630Z,59.50
2017-11-28T03:48:02.173Z,60.06
2017-11-28T03:50:29.679Z,60.33
2017-11-28T03:52:57.194Z,60.88
2017-11-28T03:55:24.787Z,61.32
2017-11-28T03:57:52.294Z,61.96
2017-11-28T04:00:35.453Z,62.31
2017-11-28T04:03:03.007Z,61.59
2017-11-28T04:05:30.531Z,61.37
2017-11-28T04:07:58.061Z,61.37
2017-11-28T04:10:25.573Z,63.31
2017-11-28T04:12:53.567Z,62.81
2017-11-28T04:15:21.048Z,62.91
2017-11-28T04:17:48.552Z,62.98
2017-11-28T04:20:16.116Z,62.85
2017-11-28T04:22:43.647Z,64.08
2017-11-28T04:25:11.174Z,64.98
2017-11-28T04:27:38.685Z,65.74
2017-11-28T04:30:06.227Z,66.37
2017-11-28T04:32:36.744Z,67.03
2017-11-28T04:35:04.200Z,67.38
2017-11-28T04:37:31.697Z,66.81
2017-11-28T04:39:59.350Z,66.94
2017-11-28T04:42:27.014Z,67.36
2017-11-28T04:44:54.547Z,67.06
2017-11-28T04:47:22.050Z,65.80
2017-11-28T04:49:49.515Z,63.89
2017-11-28T04:52:20.856Z,63.72
2017-11-28T04:54:55.786Z,64.63
2017-11-28T04:57:23.305Z,62.21
2017-11-28T04:59:50.758Z,60.61
2017-11-28T05:02:18.266Z,59.35
2017-11-28T05:04:45.811Z,58.84
2017-11-28T05:07:13.345Z,59.24
2017-11-28T05:09:40.814Z,60.01
2017-11-28T05:12:08.313Z,60.05
2017-11-28T05:14:36.648Z,60.17
2017-11-28T05:17:04.165Z,59.88
2017-11-28T05:19:31.678Z,60.47
2017-11-28T05:21:59.289Z,61.55
2017-11-28T05:24:27.679Z,62.16
2017-11-28T05:26:55.249Z,62.57
2017-11-28T05:29:22.758Z,62.83
2017-11-28T05:31:50.216Z,63.42
2017-11-28T05:34:17.753Z,63.53
2017-11-28T05:36:45.275Z,63.83
2017-11-28T05:39:12.789Z,63.42
2017-11-28T05:41:40.356Z,63.46
2017-11-28T05:44:07.883Z,63.89
2017-11-28T05:46:39.454Z,64.41
2017-11-28T05:49:06.999Z,65.03
2017-11-28T05:51:34.483Z,65.71
2017-11-28T05:54:02.874Z,66.17
2017-11-28T05:56:30.332Z,66.09
2017-11-28T05:58:57.842Z,66.19
2017-11-28T06:01:25.322Z,65.49
2017-11-28T06:03:52.848Z,65.96
2017-11-28T06:06:20.317Z,65.36
2017-11-28T06:08:47.822Z,65.01
2017-11-28T06:11:15.314Z,64.20
2017-11-28T06:13:42.817Z,63.43
2017-11-28T06:16:10.340Z,62.02
2017-11-28T06:18:37.850Z,62.13
2017-11-28T06:21:05.344Z,62.23
2017-11-28T06:23:32.846Z,62.28
2017-11-28T06:26:00.350Z,62.46
2017-11-28T06:28:27.852Z,62.53
2017-11-28T06:30:55.353Z,62.89
2017-11-28T06:33:22.858Z,62.71
2017-11-28T06:35:50.356Z,62.75
2017-11-28T06:38:17.992Z,62.74
2017-11-28T06:40:45.497Z,62.39
2017-11-28T06:43:13.067Z,63.18
2017-11-28T06:45:41.437Z,62.83
2017-11-28T06:48:08.959Z,60.59
2017-11-28T06:50:36.549Z,59.84
2017-11-28T06:53:04.070Z,59.21
2017-11-28T06:55:31.592Z,59.29
2017-11-28T06:57:59.124Z,58.97
2017-11-28T07:00:27.511Z,59.02
2017-11-28T07:02:55.047Z,58.89
2017-11-28T07:05:22.561Z,59.10
2017-11-28T07:07:50.078Z,59.30
2017-11-28T07:10:21.022Z,59.39
2017-11-28T07:12:48.496Z,58.92
2017-11-28T07:15:16.262Z,58.86
2017-11-28T07:17:43.817Z,59.05
2017-11-28T07:20:11.336Z,58.85
2017-11-28T07:22:41.806Z,59.02
2017-11-28T07:25:09.326Z,59.08
2017-11-28T07:27:36.840Z,59.26
2017-11-28T07:30:04.394Z,59.82
2017-11-28T07:32:32.844Z,60.27
2017-11-28T07:35:00.339Z,61.10
2017-11-28T07:37:27.798Z,61.44
2017-11-28T07:39:55.320Z,60.63
2017-11-28T07:42:22.841Z,59.74
2017-11-28T07:44:50.288Z,59.97
2017-11-28T07:47:17.831Z,60.44
2017-11-28T07:49:45.281Z,60.54
2017-11-28T07:52:12.816Z,60.89
2017-11-28T07:54:40.366Z,61.35
2017-11-28T07:57:07.894Z,61.16
2017-11-28T07:59:35.332Z,62.31
2017-11-28T08:02:02.838Z,62.89
2017-11-28T08:04:30.407Z,62.31
2017-11-28T08:06:58.265Z,62.00
2017-11-28T08:09:25.746Z,61.90
2017-11-28T08:11:53.233Z,62.87
2017-11-28T08:14:20.912Z,63.11
2017-11-28T08:16:48.443Z,63.12
2017-11-28T08:19:15.936Z,62.90
2017-11-28T08:21:43.418Z,62.63
2017-11-28T08:24:10.909Z,63.17
2017-11-28T08:26:38.588Z,61.50
2017-11-28T08:29:06.097Z,62.02
2017-11-28T08:34:00.404Z,58.96
2017-11-28T08:36:28.376Z,59.16
2017-11-28T08:38:55.853Z,59.34
2017-11-28T08:41:23.359Z,59.06
2017-11-28T08:43:50.881Z,59.37
2017-11-28T08:46:18.376Z,58.82
2017-11-28T08:48:45.870Z,58.25
2017-11-28T08:51:13.394Z,58.53
2017-11-28T08:53:40.849Z,58.53
2017-11-28T08:56:08.398Z,58.44
2017-11-28T08:58:36.597Z,57.19
2017-11-28T09:01:04.122Z,57.46
2017-11-28T09:03:31.632Z,57.25
2017-11-28T09:05:59.113Z,55.78
2017-11-28T09:08:26.581Z,56.11
2017-11-28T09:10:54.064Z,56.15
2017-11-28T09:13:21.517Z,55.46
2017-11-28T09:15:48.974Z,55.19
2017-11-28T09:18:16.469Z,54.69
2017-11-28T09:20:43.923Z,53.88
2017-11-28T09:23:11.386Z,52.12
2017-11-28T09:25:38.902Z,50.66
2017-11-28T09:28:06.452Z,50.33
2017-11-28T09:30:34.010Z,49.59
2017-11-28T09:33:01.503Z,49.14
2017-11-28T09:35:29.012Z,49.25
2017-11-28T09:37:56.515Z,49.06
2017-11-28T09:40:24.027Z,49.99
2017-11-28T09:42:51.588Z,49.26
2017-11-28T09:45:19.066Z,48.97
2017-11-28T09:47:46.546Z,47.91
2017-11-28T09:50:15.095Z,47.42
2017-11-28T09:52:42.599Z,46.98
2017-11-28T09:55:10.087Z,46.47
2017-11-28T09:57:37.548Z,46.46
2017-11-28T10:00:05.020Z,47.66
2017-11-28T10:02:32.499Z,48.23
2017-11-28T10:04:59.974Z,48.03
2017-11-28T10:07:27.458Z,48.51
2017-11-28T10:09:54.927Z,48.33
2017-11-28T10:12:22.427Z,48.49
2017-11-28T10:14:49.914Z,48.31
2017-11-28T10:17:17.423Z,48.94
2017-11-28T10:19:44.873Z,49.16
2017-11-28T10:22:12.341Z,49.13
2017-11-28T10:24:39.819Z,49.40
2017-11-28T10:27:07.303Z,49.25
2017-11-28T10:29:34.805Z,50.16
2017-11-28T10:32:02.258Z,50.46
2017-11-28T10:34:29.768Z,50.24
2017-11-28T10:36:57.315Z,50.32
2017-11-28T10:39:24.792Z,50.30
2017-11-28T10:41:52.259Z,49.67
2017-11-28T10:44:19.707Z,49.54
2017-11-28T10:46:47.226Z,49.53
2017-11-28T10:49:14.685Z,49.64
2017-11-28T10:51:42.165Z,49.74
2017-11-28T10:54:09.618Z,49.72
2017-11-28T10:56:37.135Z,50.13
2017-11-28T10:59:04.607Z,49.37
2017-11-28T11:01:32.065Z,49.34
2017-11-28T11:03:59.500Z,49.40
2017-11-28T11:06:27.085Z,49.50
2017-11-28T11:08:54.560Z,49.68
2017-11-28T11:11:22.012Z,49.99
2017-11-28T11:13:49.486Z,50.11
2017-11-28T11:16:17.049Z,50.16
2017-11-28T11:18:44.527Z,49.82
2017-11-28T11:21:12.012Z,50.04
2017-11-28T11:23:39.474Z,50.44
2017-11-28T11:26:06.956Z,50.40
2017-11-28T11:28:34.451Z,50.29
2017-11-28T11:31:01.889Z,50.73
2017-11-28T11:33:29.341Z,50.20
2017-11-28T11:35:56.832Z,49.74
2017-11-28T11:38:24.289Z,49.37
2017-11-28T11:40:51.737Z,49.31
2017-11-28T11:43:19.209Z,50.09
2017-11-28T11:45:46.670Z,50.22
2017-11-28T11:48:14.122Z,50.22
2017-11-28T11:50:41.607Z,50.63
2017-11-28T11:53:09.101Z,50.58
2017-11-28T11:55:36.565Z,51.26
2017-11-28T11:58:04.025Z,51.44
2017-11-28T12:00:31.806Z,51.89
2017-11-28T12:02:59.308Z,52.14
2017-11-28T12:05:26.785Z,52.25
2017-11-28T12:07:54.259Z,52.24
2017-11-28T12:10:21.727Z,52.30
2017-11-28T12:12:49.353Z,52.58
2017-11-28T12:15:18.817Z,52.72
2017-11-28T12:17:46.298Z,52.79
2017-11-28T12:20:13.920Z,53.50
2017-11-28T12:22:41.665Z,53.73
2017-11-28T12:25:09.178Z,54.27
2017-11-28T12:27:36.641Z,54.39
2017-11-28T12:30:04.097Z,54.28
2017-11-28T12:32:31.757Z,54.58
2017-11-28T12:34:59.224Z,54.39
2017-11-28T12:37:26.674Z,54.15
2017-11-28T12:39:54.149Z,53.56
2017-11-28T12:42:21.642Z,53.06
2017-11-28T12:44:49.196Z,52.23
2017-11-28T12:47:16.687Z,52.32
2017-11-28T12:49:44.160Z,52.23
2017-11-28T12:52:11.613Z,51.72
2017-11-28T12:54:39.084Z,50.73
2017-11-28T12:57:06.553Z,49.76
2017-11-28T12:59:33.996Z,50.20
2017-11-28T13:02:01.461Z,50.84
2017-11-28T13:04:28.941Z,51.82
2017-11-28T13:06:56.589Z,53.19
2017-11-28T13:09:24.112Z,53.98
2017-11-28T13:11:51.586Z,54.27
2017-11-28T13:14:19.168Z,54.34
2017-11-28T13:16:46.768Z,54.56
2017-11-28T13:19:14.343Z,54.25
2017-11-28T13:21:41.810Z,54.31
2017-11-28T13:24:09.277Z,54.56
2017-11-28T13:26:36.787Z,54.69
2017-11-28T13:29:04.233Z,54.94
2017-11-28T13:31:31.722Z,54.92
2017-11-28T13:33:59.178Z,54.76
2017-11-28T13:36:26.859Z,54.83
2017-11-28T13:38:54.324Z,54.90
2017-11-28T13:41:21.781Z,54.98
2017-11-28T13:43:49.224Z,54.96
2017-11-28T13:46:16.705Z,55.28
2017-11-28T13:48:44.168Z,55.33
2017-11-28T13:51:11.620Z,55.86
2017-11-28T13:53:39.312Z,56.13
2017-11-28T13:56:06.785Z,56.57
2017-11-28T13:58:34.420Z,56.59
2017-11-28T14:01:01.961Z,56.42
2017-11-28T14:03:29.419Z,56.53
2017-11-28T14:05:56.884Z,56.65
2017-11-28T14:08:24.371Z,56.94
2017-11-28T14:10:51.884Z,57.12
2017-11-28T14:13:19.368Z,57.70
2017-11-28T14:15:46.845Z,57.78
2017-11-28T14:18:14.340Z,58.18
2017-11-28T14:23:51.355Z,58.87
2017-11-28T14:29:34.700Z,59.42
2017-11-28T14:35:22.989Z,59.27
2017-11-28T14:37:50.511Z,59.35
2017-11-28T14:40:18.149Z,59.53
2017-11-28T14:42:48.421Z,59.63
2017-11-28T14:45:20.481Z,59.14
2017-11-28T14:47:47.993Z,59.40
2017-11-28T14:50:15.657Z,59.53
2017-11-28T14:52:47.005Z,59.67
2017-11-28T14:55:20.076Z,59.99
2017-11-28T14:57:51.583Z,60.06
2017-11-28T15:00:24.657Z,60.35
2017-11-28T15:03:08.581Z,60.54
2017-11-28T15:05:38.733Z,60.51
2017-11-28T15:11:29.789Z,60.75
2017-11-28T15:14:02.685Z,60.72
2017-11-28T15:16:35.716Z,61.07
2017-11-28T15:22:15.834Z,61.31
2017-11-28T15:24:56.202Z,61.71
2017-11-28T15:27:23.710Z,61.84
2017-11-28T15:29:52.307Z,61.92
2017-11-28T15:32:20.105Z,61.67
2017-11-28T15:34:47.617Z,61.76
2017-11-28T15:37:15.721Z,62.11
2017-11-28T15:39:43.196Z,61.90
2017-11-28T15:42:10.675Z,62.27
2017-11-28T15:44:38.222Z,62.72
2017-11-28T15:47:05.728Z,62.99
2017-11-28T15:49:33.256Z,63.27
2017-11-28T15:52:00.785Z,63.40
2017-11-28T15:54:28.708Z,63.52
2017-11-28T15:56:56.215Z,63.95
2017-11-28T15:59:23.893Z,64.09
2017-11-28T16:01:51.430Z,64.04
2017-11-28T16:04:18.924Z,64.35
2017-11-28T16:06:47.566Z,64.61
2017-11-28T16:09:15.138Z,64.55
2017-11-28T16:11:42.661Z,64.62
2017-11-28T16:14:10.185Z,64.68
2017-11-28T16:16:37.809Z,64.60
2017-11-28T16:19:05.381Z,64.77
2017-11-28T16:21:32.849Z,64.96
2017-11-28T16:24:00.330Z,65.27
2017-11-28T16:29:01.754Z,65.76
2017-11-28T16:31:29.250Z,65.83
2017-11-28T16:33:56.836Z,65.69
2017-11-28T16:36:24.335Z,66.04
2017-11-28T16:38:51.795Z,65.90
2017-11-28T16:41:19.297Z,65.76
2017-11-28T16:43:46.800Z,65.98
2017-11-28T16:46:14.456Z,66.28
2017-11-28T16:48:41.976Z,66.40
2017-11-28T16:51:09.492Z,66.69
2017-11-28T16:53:36.973Z,66.82
2017-11-28T16:56:04.539Z,66.73
2017-11-28T16:58:33.240Z,66.85
2017-11-28T17:01:00.756Z,66.88
2017-11-28T17:03:28.242Z,66.78
2017-11-28T17:05:55.715Z,66.31
2017-11-28T17:08:23.203Z,66.43
2017-11-28T17:10:50.774Z,65.73
2017-11-28T17:13:18.310Z,65.61
2017-11-28T17:15:45.817Z,64.66
2017-11-28T17:18:13.329Z,64.50
2017-11-28T17:20:40.854Z,64.46
2017-11-28T17:23:08.371Z,64.22
2017-11-28T17:25:35.851Z,63.42
2017-11-28T17:28:03.329Z,63.78
2017-11-28T17:30:30.924Z,63.20
2017-11-28T17:32:58.429Z,62.88
2017-11-28T17:35:25.929Z,62.82
2017-11-28T17:37:53.448Z,62.69
2017-11-28T17:40:20.996Z,62.59
2017-11-28T17:42:48.788Z,62.59
2017-11-28T17:45:16.900Z,62.77
2017-11-28T17:47:44.445Z,63.91
2017-11-28T17:50:11.966Z,64.57
2017-11-28T17:52:39.472Z,64.49
2017-11-28T17:55:06.971Z,63.92
2017-11-28T17:57:34.504Z,64.24
2017-11-28T18:00:02.047Z,64.34
2017-11-28T18:02:29.629Z,64.49
2017-11-28T18:04:57.304Z,64.78
2017-11-28T18:07:24.798Z,64.96
2017-11-28T18:09:52.316Z,64.81
2017-11-28T18:12:19.821Z,64.94
2017-11-28T18:14:47.321Z,65.10
2017-11-28T18:17:14.804Z,65.25
2017-11-28T18:19:42.292Z,65.55
2017-11-28T18:22:09.825Z,65.58
2017-11-28T18:24:37.438Z,65.58
2017-11-28T18:27:05.038Z,65.77
2017-11-28T18:29:32.543Z,65.30
2017-11-28T18:32:00.134Z,65.13
2017-11-28T18:34:27.605Z,64.62
2017-11-28T18:36:55.554Z,64.88
2017-11-28T18:39:23.045Z,65.27
2017-11-28T18:41:50.517Z,65.59
2017-11-28T18:44:18.132Z,65.57
2017-11-28T18:46:45.628Z,65.42
2017-11-28T18:49:13.096Z,65.21
2017-11-28T18:51:40.569Z,65.33
2017-11-28T18:54:08.029Z,65.26
2017-11-28T18:56:37.914Z,64.86
2017-11-28T18:59:05.449Z,65.16
2017-11-28T19:01:32.965Z,65.08
2017-11-28T19:04:00.451Z,64.79
2017-11-28T19:06:29.146Z,65.08
2017-11-28T19:08:56.618Z,65.39
2017-11-28T19:11:24.094Z,65.88
2017-11-28T19:13:51.592Z,65.96
2017-11-28T19:16:19.097Z,65.41
2017-11-28T19:18:46.629Z,65.44
2017-11-28T19:21:14.107Z,65.46
2017-11-28T19:23:41.605Z,66.28
2017-11-28T19:26:09.574Z,66.27
2017-11-28T19:28:37.041Z,66.23
2017-11-28T19:31:04.703Z,66.28
2017-11-28T19:33:32.164Z,66.38
2017-11-28T19:35:59.639Z,66.51
2017-11-28T19:38:27.478Z,66.15
2017-11-28T19:40:54.963Z,66.35
2017-11-28T19:43:22.480Z,66.42
2017-11-28T19:45:49.943Z,66.25
2017-11-28T19:48:17.418Z,66.60
2017-11-28T19:50:45.489Z,66.78
2017-11-28T19:53:13.001Z,66.93
2017-11-28T19:55:40.470Z,67.20
2017-11-28T19:58:07.965Z,66.97
2017-11-28T20:00:35.470Z,66.68
2017-11-28T20:03:03.088Z,66.75
2017-11-28T20:05:30.604Z,65.65
2017-11-28T20:07:58.079Z,64.58
2017-11-28T20:10:25.581Z,63.57
2017-11-28T20:12:53.069Z,63.87
2017-11-28T20:15:20.597Z,64.22
2017-11-28T20:17:48.238Z,64.32
2017-11-28T20:20:15.723Z,64.37
2017-11-28T20:22:43.263Z,64.49
2017-11-28T20:25:10.757Z,64.46
2017-11-28T20:27:38.248Z,64.69
2017-11-28T20:30:05.733Z,64.34
2017-11-28T20:32:37.806Z,64.86
2017-11-28T20:35:05.354Z,65.16
2017-11-28T20:37:33.964Z,65.03
2017-11-28T20:40:01.547Z,65.24
2017-11-28T20:42:31.346Z,65.77
2017-11-28T20:44:58.906Z,65.91
2017-11-28T20:47:26.414Z,65.66
2017-11-28T20:49:54.162Z,65.29
2017-11-28T20:52:22.092Z,65.35
2017-11-28T20:54:51.260Z,65.01
2017-11-28T20:57:18.789Z,65.10
2017-11-28T20:59:46.338Z,65.06
2017-11-28T21:02:15.205Z,64.61
2017-11-28T21:04:42.727Z,65.11
2017-11-28T21:07:10.251Z,65.39
2017-11-28T21:09:37.999Z,65.77
2017-11-28T21:12:05.507Z,66.10
2017-11-28T21:14:33.084Z,66.40
2017-11-28T21:17:01.134Z,66.61
2017-11-28T21:19:28.862Z,66.68
2017-11-28T21:21:57.175Z,66.99
2017-11-28T21:24:26.035Z,66.30
2017-11-28T21:26:53.600Z,66.50
2017-11-28T21:29:21.181Z,66.45
2017-11-28T21:31:48.641Z,66.44
2017-11-28T21:34:16.398Z,66.13
2017-11-28T21:36:44.005Z,66.12
2017-11-28T21:39:12.482Z,66.04
2017-11-28T21:41:39.981Z,65.87
2017-11-28T21:44:07.506Z,65.80
2017-11-28T21:46:35.790Z,65.53
2017-11-28T21:49:03.348Z,65.94
2017-11-28T21:51:30.845Z,65.72
2017-11-28T21:53:58.357Z,65.47
2017-11-28T21:56:25.923Z,65.81
2017-11-28T21:58:53.403Z,65.93
2017-11-28T22:01:21.952Z,65.98
2017-11-28T22:03:49.461Z,65.89
2017-11-28T22:06:16.954Z,65.77
2017-11-28T22:08:44.436Z,65.63
2017-11-28T22:11:12.705Z,65.49
2017-11-28T22:13:40.207Z,65.29
2017-11-28T22:16:09.375Z,65.19
2017-11-28T22:18:36.875Z,65.27
2017-11-28T22:21:04.463Z,65.43
2017-11-28T22:23:32.012Z,65.26
2017-11-28T22:25:59.493Z,65.14
2017-11-28T22:28:26.973Z,65.00
2017-11-28T22:30:54.668Z,65.13
2017-11-28T22:33:22.274Z,64.89
2017-11-28T22:35:49.770Z,64.90
2017-11-28T22:38:17.278Z,64.80
2017-11-28T22:40:44.756Z,64.79
2017-11-28T22:43:12.241Z,65.26
2017-11-28T22:45:39.710Z,65.12
2017-11-28T22:48:07.179Z,64.89
2017-11-28T22:50:35.581Z,64.95
2017-11-28T22:53:03.181Z,65.11
2017-11-28T22:55:30.637Z,65.24
2017-11-28T22:57:58.141Z,65.21
2017-11-28T23:00:25.720Z,65.14
2017-11-28T23:02:53.325Z,65.29
2017-11-28T23:05:20.792Z,65.48
2017-11-28T23:07:48.252Z,65.28
2017-11-28T23:10:16.810Z,65.34
2017-11-28T23:12:44.310Z,65.47
2017-11-28T23:15:11.945Z,65.53
2017-11-28T23:17:39.436Z,65.47
2017-11-28T23:20:06.927Z,65.66
2017-11-28T23:22:34.639Z,65.83
2017-11-28T23:25:02.114Z,65.92
2017-11-28T23:27:29.605Z,65.90
2017-11-28T23:29:57.089Z,65.76
2017-11-28T23:32:24.587Z,65.60
2017-11-28T23:34:52.082Z,66.02
2017-11-28T23:37:19.605Z,66.49
2017-11-28T23:39:47.166Z,66.47
2017-11-28T23:42:14.644Z,66.97
2017-11-28T23:44:42.156Z,67.18
2017-11-28T23:47:09.681Z,67.32
2017-11-28T23:49:37.190Z,68.25
2017-11-28T23:52:04.716Z,69.65
2017-11-28T23:54:32.186Z,70.56
2017-11-28T23:56:59.652Z,72.39
2017-11-28T23:59:27.193Z,72.89
